Pinecreek, Minnesota
Current Conditions -  °F | °C
As of 4:55 PM on Friday 28 Nov 2014 (Local Time) from KROX Reporting Station
Overcast Overcast  
Wind Chill:   Ceiling: 2300
Heat Index: 16°   Visibility: 10mi
Dew Point: 10°   Wind: 10mph
Humidity: 79%   Direction: 100°E
Pressure: 29.78"   Gusts: NA
Location:  48.7499°N, 95.6399°W
Report Text: KROX 282255Z AUTO 10009KT 10SM OVC023 M09/M12 A2978 RMK AO2
Loading
Personal Weather Stations






























Interactive Weather Map New forecast layout! Learn more

10-Day Weather Forecast

Advertisements
Track Severe Weather on mobile